Terminal Aerodrome Forecast
Issued by NWS

Current Version | Previous Version | Text Only | Print | Product List | Glossary On
Versions: 1 2 3 4 5 6 7 8 9 10 11 12 13 14 15 16 17
000
FTUS43 KGRB 291135
TAFRHI
TAF
KRHI 291135Z 2912/3012 VRB03KT P6SM SCT020 BKN050
      TEMPO 2912/2914 BKN025
     FM291600 03005KT P6SM SCT050
     FM292300 09003KT P6SM SKC=

USA.gov is the U.S. government's official web portal to all federal, state and local government web resources and services.